createdAt,value
2018-03-02T00:01:32.022Z,98448.86
2018-03-02T00:04:00.041Z,98453.98
2018-03-02T00:06:27.698Z,98447.84
2018-03-02T00:08:55.336Z,98439.22
2018-03-02T00:11:22.964Z,98444.52
2018-03-02T00:13:50.537Z,98445.33
2018-03-02T00:16:18.137Z,98444.98
2018-03-02T00:18:46.055Z,98437.55
2018-03-02T00:21:13.692Z,98434.78
2018-03-02T00:23:41.296Z,98439.86
2018-03-02T00:26:08.980Z,98441.55
2018-03-02T00:28:36.717Z,98439.81
2018-03-02T00:31:04.351Z,98427.69
2018-03-02T00:33:32.006Z,98428.14
2018-03-02T00:35:59.644Z,98421.45
2018-03-02T00:38:27.250Z,98414.40
2018-03-02T00:40:55.414Z,98409.17
2018-03-02T00:43:23.047Z,98400.91
2018-03-02T00:45:50.609Z,98387.95
2018-03-02T00:48:18.302Z,98387.67
2018-03-02T00:50:45.889Z,98394.54
2018-03-02T00:53:13.483Z,98389.25
2018-03-02T00:55:41.174Z,98385.75
2018-03-02T00:58:08.777Z,98389.62
2018-03-02T01:00:36.403Z,98383.73
2018-03-02T01:03:04.086Z,98380.66
2018-03-02T01:05:31.680Z,98372.39
2018-03-02T01:07:59.257Z,98371.56
2018-03-02T01:10:26.947Z,98377.09
2018-03-02T01:12:54.530Z,98378.13
2018-03-02T01:15:22.173Z,98364.00
2018-03-02T01:17:50.017Z,98351.33
2018-03-02T01:20:17.594Z,98346.64
2018-03-02T01:22:45.229Z,98340.92
2018-03-02T01:25:12.868Z,98342.20
2018-03-02T01:27:40.430Z,98342.58
2018-03-02T01:30:08.064Z,98332.84
2018-03-02T01:32:35.916Z,98332.84
2018-03-02T01:35:03.510Z,98327.06
2018-03-02T01:37:31.150Z,98325.98
2018-03-02T01:39:58.798Z,98315.58
2018-03-02T01:42:26.400Z,98324.55
2018-03-02T01:44:53.979Z,98318.02
2018-03-02T01:47:21.612Z,98317.48
2018-03-02T01:49:49.173Z,98304.70
2018-03-02T01:52:16.774Z,98293.97
2018-03-02T01:54:44.605Z,98292.50
2018-03-02T01:57:12.244Z,98295.56
2018-03-02T01:59:39.831Z,98296.41
2018-03-02T02:02:07.673Z,98290.50
2018-03-02T02:04:35.239Z,98297.70
2018-03-02T02:07:02.820Z,98303.91
2018-03-02T02:09:30.464Z,98288.14
2018-03-02T02:11:58.046Z,98285.72
2018-03-02T02:14:25.614Z,98289.56
2018-03-02T02:16:53.236Z,98288.78
2018-03-02T02:19:20.833Z,98277.53
2018-03-02T02:21:48.463Z,98269.17
2018-03-02T02:24:16.181Z,98262.48
2018-03-02T02:26:43.737Z,98276.89
2018-03-02T02:29:11.330Z,98258.29
2018-03-02T02:31:39.068Z,98252.33
2018-03-02T02:34:07.200Z,98259.50
2018-03-02T02:36:34.765Z,98244.14
2018-03-02T02:39:02.623Z,98237.80
2018-03-02T02:41:30.207Z,98247.89
2018-03-02T02:43:57.794Z,98260.17
2018-03-02T02:46:25.765Z,98258.95
2018-03-02T02:48:53.394Z,98250.91
2018-03-02T02:51:21.043Z,98251.66
2018-03-02T02:53:48.758Z,98242.77
2018-03-02T02:56:16.400Z,98227.04
2018-03-02T02:58:44.037Z,98212.97
2018-03-02T03:01:11.735Z,98220.13
2018-03-02T03:03:39.317Z,98217.10
2018-03-02T03:06:06.892Z,98228.23
2018-03-02T03:08:34.549Z,98232.05
2018-03-02T03:11:02.131Z,98224.71
2018-03-02T03:13:29.761Z,98231.31
2018-03-02T03:15:57.490Z,98232.51
2018-03-02T03:18:25.064Z,98219.45
2018-03-02T03:20:53.241Z,98226.34
2018-03-02T03:23:21.231Z,98222.20
2018-03-02T03:25:48.799Z,98216.20
2018-03-02T03:28:16.377Z,98216.30
2018-03-02T03:30:44.079Z,98219.50
2018-03-02T03:33:11.778Z,98200.52
2018-03-02T03:35:39.372Z,98194.15
2018-03-02T03:38:06.989Z,98202.89
2018-03-02T03:40:34.867Z,98189.41
2018-03-02T03:43:02.440Z,98186.44
2018-03-02T03:45:30.320Z,98183.89
2018-03-02T03:47:57.901Z,98178.66
2018-03-02T03:50:25.494Z,98185.29
2018-03-02T03:52:53.111Z,98181.05
2018-03-02T03:55:20.673Z,98179.30
2018-03-02T03:57:48.258Z,98183.41
2018-03-02T04:00:15.865Z,98191.77
2018-03-02T04:02:43.453Z,98188.64
2018-03-02T04:05:11.090Z,98177.94
2018-03-02T04:07:38.742Z,98182.94
2018-03-02T04:10:06.306Z,98180.15
2018-03-02T04:12:33.889Z,98173.78
2018-03-02T04:15:01.598Z,98167.73
2018-03-02T04:17:29.177Z,98164.42
2018-03-02T04:19:56.755Z,98162.07
2018-03-02T04:22:24.646Z,98158.00
2018-03-02T04:24:52.224Z,98151.77
2018-03-02T04:27:19.815Z,98141.47
2018-03-02T04:29:47.728Z,98142.27
2018-03-02T04:32:15.334Z,98141.19
2018-03-02T04:34:43.392Z,98137.91
2018-03-02T04:37:11.005Z,98140.80
2018-03-02T04:39:38.585Z,98134.94
2018-03-02T04:42:06.157Z,98139.09
2018-03-02T04:44:33.802Z,98131.48
2018-03-02T04:47:01.478Z,98134.00
2018-03-02T04:49:29.129Z,98132.53
2018-03-02T04:51:56.751Z,98125.06
2018-03-02T04:54:24.334Z,98126.15
2018-03-02T04:56:51.920Z,98123.69
2018-03-02T04:59:19.805Z,98119.56
2018-03-02T05:01:47.372Z,98108.88
2018-03-02T05:04:14.964Z,98106.47
2018-03-02T05:06:42.880Z,98117.98
2018-03-02T05:09:10.475Z,98115.99
2018-03-02T05:11:38.044Z,98112.53
2018-03-02T05:14:05.692Z,98113.56
2018-03-02T05:16:33.252Z,98114.64
2018-03-02T05:19:00.865Z,98113.79
2018-03-02T05:21:28.467Z,98131.29
2018-03-02T05:23:56.101Z,98131.19
2018-03-02T05:26:23.707Z,98122.16
2018-03-02T05:28:51.328Z,98121.62
2018-03-02T05:31:18.905Z,98124.88
2018-03-02T05:33:46.538Z,98114.16
2018-03-02T05:36:14.625Z,98110.16
2018-03-02T05:38:42.193Z,98111.36
2018-03-02T05:41:09.777Z,98114.37
2018-03-02T05:43:37.787Z,98124.98
2018-03-02T05:46:05.447Z,98128.55
2018-03-02T05:48:33.017Z,98125.04
2018-03-02T05:51:00.658Z,98119.69
2018-03-02T05:53:28.246Z,98128.66
2018-03-02T05:55:55.847Z,98137.45
2018-03-02T05:58:23.484Z,98141.69
2018-03-02T06:00:51.053Z,98130.48
2018-03-02T06:03:18.689Z,98135.17
2018-03-02T06:05:46.333Z,98119.45
2018-03-02T06:08:13.893Z,98126.86
2018-03-02T06:10:41.468Z,98119.77
2018-03-02T06:13:09.079Z,98107.38
2018-03-02T06:15:36.631Z,98110.78
2018-03-02T06:18:04.219Z,98110.17
2018-03-02T06:20:31.868Z,98115.06
2018-03-02T06:22:59.463Z,98109.66
2018-03-02T06:25:27.034Z,98104.09
2018-03-02T06:27:54.934Z,98102.02
2018-03-02T06:30:22.587Z,98100.41
2018-03-02T06:32:50.163Z,98098.62
2018-03-02T06:35:17.805Z,98095.61
2018-03-02T06:37:45.579Z,98091.45
2018-03-02T06:40:13.222Z,98092.52
2018-03-02T06:42:41.644Z,98090.52
2018-03-02T06:45:09.219Z,98094.14
2018-03-02T06:47:36.798Z,98098.97
2018-03-02T06:50:04.441Z,98099.89
2018-03-02T06:52:32.013Z,98103.39
2018-03-02T06:54:59.649Z,98104.19
2018-03-02T06:57:27.283Z,98103.41
2018-03-02T06:59:54.879Z,98100.28
2018-03-02T07:02:22.446Z,98099.06
2018-03-02T07:04:50.102Z,98093.23
2018-03-02T07:07:17.714Z,98096.22
2018-03-02T07:09:45.359Z,98091.80
2018-03-02T07:12:12.980Z,98087.98
2018-03-02T07:14:40.569Z,98086.34
2018-03-02T07:17:08.197Z,98078.70
2018-03-02T07:19:36.061Z,98066.81
2018-03-02T07:22:03.637Z,98064.11
2018-03-02T07:24:31.206Z,98056.60
2018-03-02T07:26:58.939Z,98046.17
2018-03-02T07:29:26.550Z,98046.12
2018-03-02T07:31:54.149Z,98049.34
2018-03-02T07:34:22.021Z,98047.91
2018-03-02T07:36:49.605Z,98043.69
2018-03-02T07:39:17.378Z,98033.80
2018-03-02T07:41:45.065Z,98036.25
2018-03-02T07:44:12.667Z,98031.12
2018-03-02T07:46:40.975Z,98036.91
2018-03-02T07:49:08.662Z,98037.39
2018-03-02T07:51:36.234Z,98023.94
2018-03-02T07:54:03.820Z,98022.64
2018-03-02T07:56:31.438Z,98032.92
2018-03-02T07:58:58.996Z,98028.59
2018-03-02T08:01:26.573Z,98036.84
2018-03-02T08:03:54.213Z,98028.16
2018-03-02T08:06:21.807Z,98019.67
2018-03-02T08:08:49.379Z,98026.09
2018-03-02T08:11:17.358Z,98027.20
2018-03-02T08:13:44.926Z,98026.95
2018-03-02T08:16:12.555Z,98018.39
2018-03-02T08:18:40.178Z,98016.94
2018-03-02T08:21:07.763Z,98027.14
2018-03-02T08:23:35.340Z,98022.19
2018-03-02T08:26:03.291Z,98016.08
2018-03-02T08:28:30.919Z,98019.66
2018-03-02T08:30:58.479Z,98018.16
2018-03-02T08:33:26.159Z,98016.81
2018-03-02T08:35:53.761Z,98012.27
2018-03-02T08:38:22.259Z,98021.81
2018-03-02T08:40:50.046Z,98016.15
2018-03-02T08:43:17.686Z,98019.86
2018-03-02T08:45:45.277Z,98024.57
2018-03-02T08:48:13.132Z,98017.56
2018-03-02T08:50:40.740Z,98020.84
2018-03-02T08:53:08.317Z,98019.09
2018-03-02T08:55:35.968Z,98016.36
2018-03-02T08:58:03.532Z,98015.58
2018-03-02T09:00:31.222Z,98017.97
2018-03-02T09:02:58.882Z,98022.52
2018-03-02T09:05:26.461Z,98011.73
2018-03-02T09:07:54.032Z,98009.38
2018-03-02T09:10:21.853Z,98009.30
2018-03-02T09:12:49.431Z,98008.05
2018-03-02T09:15:17.074Z,97999.53
2018-03-02T09:17:45.469Z,98001.22
2018-03-02T09:20:13.053Z,97995.63
2018-03-02T09:22:40.630Z,97994.30
2018-03-02T09:25:08.284Z,97983.92
2018-03-02T09:27:35.878Z,97987.19
2018-03-02T09:30:03.531Z,97982.67
2018-03-02T09:32:31.164Z,97979.69
2018-03-02T09:34:58.811Z,97977.45
2018-03-02T09:37:26.586Z,97977.06
2018-03-02T09:39:54.227Z,97968.78
2018-03-02T09:42:21.959Z,97974.40
2018-03-02T09:44:49.573Z,97973.42
2018-03-02T09:47:17.208Z,97960.73
2018-03-02T09:49:44.876Z,97958.00
2018-03-02T09:52:12.459Z,97951.97
2018-03-02T09:54:40.093Z,97955.20
2018-03-02T09:57:07.655Z,97958.05
2018-03-02T09:59:35.302Z,97956.30
2018-03-02T10:02:03.233Z,97949.97
2018-03-02T10:04:30.845Z,97946.44
2018-03-02T10:06:58.421Z,97946.45
2018-03-02T10:09:26.069Z,97940.71
2018-03-02T10:11:53.645Z,97940.52
2018-03-02T10:14:21.280Z,97932.59
2018-03-02T10:16:48.929Z,97924.12
2018-03-02T10:19:16.858Z,97935.30
2018-03-02T10:21:44.481Z,97948.52
2018-03-02T10:24:12.171Z,97936.27
2018-03-02T10:26:39.876Z,97934.66
2018-03-02T10:29:07.453Z,97929.69
2018-03-02T10:31:35.078Z,97930.47
2018-03-02T10:34:03.197Z,97930.59
2018-03-02T10:36:31.630Z,97926.73
2018-03-02T10:38:59.592Z,97928.40
2018-03-02T10:41:27.153Z,97925.75
2018-03-02T10:43:54.925Z,97922.84
2018-03-02T10:46:22.566Z,97905.63
2018-03-02T10:48:50.182Z,97903.63
2018-03-02T10:51:17.748Z,97906.78
2018-03-02T10:53:45.407Z,97900.55
2018-03-02T10:56:13.919Z,97895.67
2018-03-02T10:58:41.522Z,97891.80
2018-03-02T11:01:12.044Z,97885.52
2018-03-02T11:03:39.657Z,97891.44
2018-03-02T11:06:07.400Z,97882.86
2018-03-02T11:08:35.694Z,97877.48
2018-03-02T11:11:03.957Z,97867.67
2018-03-02T11:13:31.549Z,97868.99
2018-03-02T11:16:00.402Z,97866.92
2018-03-02T11:18:27.986Z,97866.70
2018-03-02T11:20:55.553Z,97859.17
2018-03-02T11:23:23.230Z,97857.13
2018-03-02T11:25:50.839Z,97847.38
2018-03-02T11:28:18.424Z,97838.61
2018-03-02T11:30:46.087Z,97837.04
2018-03-02T11:33:13.673Z,97833.66
2018-03-02T11:35:41.260Z,97831.20
2018-03-02T11:38:08.900Z,97822.61
2018-03-02T11:40:36.491Z,97819.95
2018-03-02T11:43:04.080Z,97812.15
2018-03-02T11:45:32.630Z,97811.86
2018-03-02T11:48:00.259Z,97804.76
2018-03-02T11:50:27.946Z,97803.89
2018-03-02T11:52:55.584Z,97809.62
2018-03-02T11:55:23.140Z,97806.32
2018-03-02T11:57:50.695Z,97809.42
2018-03-02T12:00:18.448Z,97807.40
2018-03-02T12:02:46.046Z,97802.55
2018-03-02T12:05:13.666Z,97795.09
2018-03-02T12:07:41.335Z,97792.22
2018-03-02T12:10:08.934Z,97795.03
2018-03-02T12:12:36.566Z,97790.97
2018-03-02T12:15:04.239Z,97781.25
2018-03-02T12:17:31.805Z,97781.13
2018-03-02T12:19:59.393Z,97779.17
2018-03-02T12:22:27.018Z,97781.96
2018-03-02T12:24:54.589Z,97776.17
2018-03-02T12:27:22.167Z,97778.89
2018-03-02T12:29:49.782Z,97780.70
2018-03-02T12:32:17.361Z,97769.27
2018-03-02T12:34:44.957Z,97776.95
2018-03-02T12:37:12.569Z,97768.30
2018-03-02T12:39:40.170Z,97765.70
2018-03-02T12:42:07.773Z,97765.94
2018-03-02T12:44:36.426Z,97762.59
2018-03-02T12:47:04.053Z,97750.47
2018-03-02T12:49:31.702Z,97748.66
2018-03-02T12:51:59.378Z,97745.89
2018-03-02T12:54:27.061Z,97738.20
2018-03-02T12:56:54.553Z,97738.41
2018-03-02T12:59:22.175Z,97740.19
2018-03-02T13:01:49.815Z,97734.41
2018-03-02T13:04:17.428Z,97728.52
2018-03-02T13:06:45.261Z,97731.00
2018-03-02T13:09:12.838Z,97721.61
2018-03-02T13:11:40.454Z,97715.67
2018-03-02T13:14:08.364Z,97710.61
2018-03-02T13:16:35.924Z,97698.09
2018-03-02T13:19:03.488Z,97698.41
2018-03-02T13:21:31.136Z,97695.30
2018-03-02T13:23:58.736Z,97683.23
2018-03-02T13:26:38.214Z,97671.65
2018-03-02T13:29:05.806Z,97674.37
2018-03-02T13:31:33.364Z,97668.80
2018-03-02T13:34:12.863Z,97658.55
2018-03-02T13:36:40.440Z,97643.30
2018-03-02T13:39:08.018Z,97638.22
2018-03-02T13:41:47.410Z,97645.56
2018-03-02T13:44:14.994Z,97631.88
2018-03-02T13:46:42.565Z,97627.78
2018-03-02T13:49:21.974Z,97631.52
2018-03-02T13:51:49.541Z,97623.49
2018-03-02T13:54:17.170Z,97619.27
2018-03-02T13:56:56.618Z,97616.94
2018-03-02T13:59:24.255Z,97619.45
2018-03-02T14:01:51.839Z,97610.98
2018-03-02T14:04:31.566Z,97599.41
2018-03-02T14:06:59.132Z,97599.19
2018-03-02T14:09:26.733Z,97591.23
2018-03-02T14:11:54.392Z,97594.56
2018-03-02T14:14:21.987Z,97585.20
2018-03-02T14:16:49.581Z,97583.11
2018-03-02T14:19:17.342Z,97579.72
2018-03-02T14:21:44.922Z,97581.19
2018-03-02T14:24:12.508Z,97572.00
2018-03-02T14:26:40.146Z,97573.62
2018-03-02T14:29:07.730Z,97579.05
2018-03-02T14:31:35.317Z,97566.67
2018-03-02T14:34:03.010Z,97563.31
2018-03-02T14:36:30.681Z,97560.48
2018-03-02T14:38:58.240Z,97551.03
2018-03-02T14:41:25.884Z,97545.75
2018-03-02T14:43:54.385Z,97545.55
2018-03-02T14:46:21.959Z,97538.61
2018-03-02T14:48:49.601Z,97544.05
2018-03-02T14:51:17.384Z,97534.11
2018-03-02T14:53:44.940Z,97528.46
2018-03-02T14:56:12.576Z,97522.48
2018-03-02T14:58:40.150Z,97518.72
2018-03-02T15:01:07.724Z,97518.10
2018-03-02T15:03:35.387Z,97515.14
2018-03-02T15:06:03.026Z,97512.91
2018-03-02T15:08:30.592Z,97513.33
2018-03-02T15:10:58.220Z,97513.16
2018-03-02T15:13:25.935Z,97523.34
2018-03-02T15:15:53.518Z,97519.78
2018-03-02T15:18:21.143Z,97531.39
2018-03-02T15:20:48.713Z,97525.73
2018-03-02T15:23:16.286Z,97531.05
2018-03-02T15:25:43.881Z,97519.50
2018-03-02T15:28:11.510Z,97516.05
2018-03-02T15:30:39.459Z,97508.67
2018-03-02T15:33:07.392Z,97503.04
2018-03-02T15:35:35.029Z,97496.81
2018-03-02T15:38:02.623Z,97500.75
2018-03-02T15:40:30.225Z,97502.05
2018-03-02T15:42:57.799Z,97498.50
2018-03-02T15:45:25.442Z,97501.48
2018-03-02T15:47:53.071Z,97502.67
2018-03-02T15:50:20.646Z,97496.30
2018-03-02T15:52:48.373Z,97501.08
2018-03-02T15:55:16.015Z,97492.87
2018-03-02T15:57:43.631Z,97488.11
2018-03-02T16:00:11.244Z,97483.83
2018-03-02T16:02:39.173Z,97489.47
2018-03-02T16:05:06.815Z,97481.92
2018-03-02T16:07:34.438Z,97482.66
2018-03-02T16:10:02.074Z,97480.18
2018-03-02T16:12:32.288Z,97476.73
2018-03-02T16:15:00.082Z,97469.53
2018-03-02T16:17:28.321Z,97456.86
2018-03-02T16:19:55.965Z,97468.33
2018-03-02T16:22:23.550Z,97467.01
2018-03-02T16:24:51.251Z,97466.81
2018-03-02T16:27:18.822Z,97458.42
2018-03-02T16:29:46.425Z,97458.19
2018-03-02T16:32:14.069Z,97453.66
2018-03-02T16:34:41.655Z,97441.84
2018-03-02T16:37:09.233Z,97449.45
2018-03-02T16:39:37.235Z,97453.15
2018-03-02T16:42:04.848Z,97452.73
2018-03-02T16:44:32.471Z,97452.25
2018-03-02T16:47:00.135Z,97445.83
2018-03-02T16:49:27.742Z,97439.07
2018-03-02T16:51:55.467Z,97429.20
2018-03-02T16:54:23.198Z,97429.93
2018-03-02T16:56:50.797Z,97428.03
2018-03-02T16:59:18.516Z,97426.95
2018-03-02T17:01:46.235Z,97425.55
2018-03-02T17:04:13.974Z,97414.34
2018-03-02T17:06:41.560Z,97424.13
2018-03-02T17:09:09.225Z,97427.88
2018-03-02T17:11:36.868Z,97420.61
2018-03-02T17:14:04.550Z,97415.35
2018-03-02T17:16:32.199Z,97413.64
2018-03-02T17:18:59.822Z,97409.19
2018-03-02T17:21:27.439Z,97400.77
2018-03-02T17:23:55.980Z,97398.64
2018-03-02T17:26:23.578Z,97406.21
2018-03-02T17:28:51.137Z,97409.61
2018-03-02T17:31:18.936Z,97399.73
2018-03-02T17:33:46.619Z,97400.41
2018-03-02T17:36:14.265Z,97403.98
2018-03-02T17:38:42.115Z,97397.44
2018-03-02T17:41:09.811Z,97378.78
2018-03-02T17:43:37.513Z,97380.00
2018-03-02T17:46:05.264Z,97377.63
2018-03-02T17:48:33.072Z,97373.73
2018-03-02T17:51:00.863Z,97367.73
2018-03-02T17:53:30.633Z,97375.24
2018-03-02T17:55:58.345Z,97375.66
2018-03-02T17:58:26.127Z,97384.96
2018-03-02T18:00:54.086Z,97386.20
2018-03-02T18:03:21.740Z,97382.09
2018-03-02T18:05:49.420Z,97374.72
2018-03-02T18:08:17.239Z,97364.14
2018-03-02T18:10:45.110Z,97368.91
2018-03-02T18:13:12.697Z,97367.62
2018-03-02T18:15:40.377Z,97360.47
2018-03-02T18:18:07.985Z,97358.28
2018-03-02T18:20:35.592Z,97362.98
2018-03-02T18:23:03.352Z,97368.86
2018-03-02T18:25:31.287Z,97365.16
2018-03-02T18:27:59.130Z,97361.73
2018-03-02T18:30:26.846Z,97359.79
2018-03-02T18:32:54.549Z,97355.01
2018-03-02T18:35:22.175Z,97356.37
2018-03-02T18:37:49.829Z,97346.56
2018-03-02T18:40:17.495Z,97334.33
2018-03-02T18:42:45.068Z,97333.11
2018-03-02T18:45:13.005Z,97327.45
2018-03-02T18:47:40.598Z,97329.20
2018-03-02T18:50:08.184Z,97336.86
2018-03-02T18:52:36.006Z,97336.16
2018-03-02T18:55:03.602Z,97333.73
2018-03-02T18:57:31.405Z,97326.16
2018-03-02T18:59:59.098Z,97322.87
2018-03-02T19:02:26.926Z,97329.48
2018-03-02T19:04:54.679Z,97330.59
2018-03-02T19:07:22.537Z,97323.08
2018-03-02T19:09:50.136Z,97326.33
2018-03-02T19:12:17.942Z,97315.69
2018-03-02T19:14:46.121Z,97316.00
2018-03-02T19:17:13.810Z,97308.40
2018-03-02T19:19:41.517Z,97305.03
2018-03-02T19:22:09.702Z,97329.17
2018-03-02T19:24:37.409Z,97326.23
2018-03-02T19:27:05.064Z,97316.78
2018-03-02T19:29:32.706Z,97309.05
2018-03-02T19:32:00.484Z,97316.08
2018-03-02T19:34:28.264Z,97317.44
2018-03-02T19:36:55.974Z,97318.54
2018-03-02T19:39:23.867Z,97314.57
2018-03-02T19:41:51.672Z,97313.33
2018-03-02T19:44:19.610Z,97322.47
2018-03-02T19:46:47.363Z,97319.53
2018-03-02T19:49:15.187Z,97309.83
2018-03-02T19:51:43.338Z,97303.20
2018-03-02T19:54:11.038Z,97294.91
2018-03-02T19:56:38.828Z,97293.23
2018-03-02T19:59:07.421Z,97293.19
2018-03-02T20:01:35.192Z,97287.89
2018-03-02T20:04:03.011Z,97293.73
2018-03-02T20:06:30.796Z,97285.92
2018-03-02T20:08:58.616Z,97291.47
2018-03-02T20:11:26.436Z,97286.66
2018-03-02T20:13:54.367Z,97287.88
2018-03-02T20:16:22.309Z,97285.67
2018-03-02T20:18:50.073Z,97291.02
2018-03-02T20:21:17.896Z,97271.34
2018-03-02T20:23:45.637Z,97262.66
2018-03-02T20:26:13.404Z,97258.88
2018-03-02T20:28:41.465Z,97267.94
2018-03-02T20:31:09.271Z,97259.05
2018-03-02T20:33:36.884Z,97260.67
2018-03-02T20:36:04.918Z,97251.71
2018-03-02T20:38:32.687Z,97246.68
2018-03-02T20:41:00.374Z,97226.09
2018-03-02T20:43:28.129Z,97220.03
2018-03-02T20:45:55.748Z,97223.04
2018-03-02T20:48:23.394Z,97219.96
2018-03-02T20:50:51.066Z,97218.83
2018-03-02T20:53:18.655Z,97224.39
2018-03-02T20:55:46.993Z,97230.53
2018-03-02T20:58:14.675Z,97222.62
2018-03-02T21:00:42.531Z,97216.39
2018-03-02T21:03:10.290Z,97202.36
2018-03-02T21:05:38.162Z,97202.44
2018-03-02T21:08:05.883Z,97189.21
2018-03-02T21:10:33.546Z,97187.80
2018-03-02T21:13:01.190Z,97194.63
2018-03-02T21:15:28.842Z,97195.87
2018-03-02T21:17:56.474Z,97195.11
2018-03-02T21:20:24.082Z,97198.13
2018-03-02T21:22:52.301Z,97202.75
2018-03-02T21:25:19.860Z,97211.23
2018-03-02T21:27:48.465Z,97214.75
2018-03-02T21:30:16.403Z,97197.67
2018-03-02T21:32:44.026Z,97194.63
2018-03-02T21:35:11.657Z,97193.69
2018-03-02T21:37:39.235Z,97198.27
2018-03-02T21:40:06.842Z,97190.20
2018-03-02T21:42:34.748Z,97192.83
2018-03-02T21:45:02.334Z,97189.36
2018-03-02T21:47:29.990Z,97183.55
2018-03-02T21:49:57.901Z,97171.20
2018-03-02T21:52:25.477Z,97167.20
2018-03-02T21:54:53.066Z,97175.92
2018-03-02T21:57:20.716Z,97172.97
2018-03-02T21:59:48.300Z,97168.56
2018-03-02T22:02:15.962Z,97173.06
2018-03-02T22:04:43.919Z,97161.62
2018-03-02T22:07:11.506Z,97160.03
2018-03-02T22:09:39.149Z,97164.54
2018-03-02T22:12:06.760Z,97142.70
2018-03-02T22:14:34.337Z,97147.34
2018-03-02T22:17:01.957Z,97156.20
2018-03-02T22:19:30.095Z,97159.62
2018-03-02T22:21:57.675Z,97145.69
2018-03-02T22:24:25.318Z,97154.42
2018-03-02T22:26:52.983Z,97145.38
2018-03-02T22:29:20.561Z,97154.56
2018-03-02T22:31:48.154Z,97141.10
2018-03-02T22:34:15.854Z,97137.81
2018-03-02T22:36:43.431Z,97134.06
2018-03-02T22:39:11.028Z,97144.56
2018-03-02T22:41:38.670Z,97140.20
2018-03-02T22:44:06.258Z,97129.61
2018-03-02T22:46:33.860Z,97129.37
2018-03-02T22:49:01.508Z,97119.64
2018-03-02T22:51:29.090Z,97115.74
2018-03-02T22:53:56.742Z,97112.95
2018-03-02T22:56:24.389Z,97117.03
2018-03-02T22:58:51.976Z,97115.38
2018-03-02T23:01:19.558Z,97095.36
2018-03-02T23:03:47.244Z,97085.56
2018-03-02T23:06:15.043Z,97090.90
2018-03-02T23:08:42.676Z,97078.09
2018-03-02T23:11:10.582Z,97078.02
2018-03-02T23:13:38.169Z,97083.92
2018-03-02T23:16:05.755Z,97092.59
2018-03-02T23:18:33.397Z,97083.43
2018-03-02T23:21:00.982Z,97076.84
2018-03-02T23:23:28.565Z,97085.81
2018-03-02T23:25:56.204Z,97071.93
2018-03-02T23:28:23.804Z,97060.30
2018-03-02T23:30:51.392Z,97054.30
2018-03-02T23:33:19.018Z,97043.77
2018-03-02T23:35:46.604Z,97033.12
2018-03-02T23:38:14.196Z,97026.28
2018-03-02T23:40:42.054Z,97028.86
2018-03-02T23:43:09.633Z,97020.73
2018-03-02T23:45:37.271Z,97016.39
2018-03-02T23:48:04.905Z,97001.69
2018-03-02T23:50:32.506Z,96993.77
2018-03-02T23:53:00.097Z,96992.59
2018-03-02T23:55:27.735Z,96989.35
2018-03-02T23:57:55.321Z,96989.35
